createdAt,value
2019-03-30T00:03:26.135Z,85.60
2019-03-30T00:07:35.451Z,86.00
2019-03-30T00:11:44.763Z,85.80
2019-03-30T00:15:54.091Z,85.80
2019-03-30T00:20:03.818Z,86.00
2019-03-30T00:24:13.151Z,85.80
2019-03-30T00:28:22.534Z,86.00
2019-03-30T00:32:31.856Z,85.90
2019-03-30T00:36:41.499Z,85.90
2019-03-30T00:40:50.910Z,86.00
2019-03-30T00:45:00.316Z,86.10
2019-03-30T00:49:09.640Z,86.40
2019-03-30T00:53:19.005Z,86.60
2019-03-30T00:57:29.050Z,86.80
2019-03-30T01:01:38.379Z,86.80
2019-03-30T01:05:47.770Z,86.80
2019-03-30T01:09:57.484Z,86.60
2019-03-30T01:14:06.816Z,86.80
2019-03-30T01:18:16.210Z,87.00
2019-03-30T01:22:25.611Z,87.10
2019-03-30T01:26:34.918Z,87.20
2019-03-30T01:30:44.319Z,86.90
2019-03-30T01:34:53.954Z,87.10
2019-03-30T01:39:04.908Z,87.30
2019-03-30T01:43:14.594Z,87.30
2019-03-30T01:47:24.352Z,87.50
2019-03-30T01:51:33.655Z,87.70
2019-03-30T01:55:42.979Z,87.70
2019-03-30T01:59:52.314Z,87.90
2019-03-30T02:04:01.615Z,88.20
2019-03-30T02:08:10.951Z,88.20
2019-03-30T02:12:20.331Z,88.20
2019-03-30T02:16:29.677Z,88.20
2019-03-30T02:20:40.983Z,88.30
2019-03-30T02:24:50.327Z,88.50
2019-03-30T02:28:59.652Z,89.70
2019-03-30T02:33:09.483Z,88.90
2019-03-30T02:37:19.244Z,89.30
2019-03-30T02:41:28.614Z,88.50
2019-03-30T02:45:37.957Z,88.60
2019-03-30T02:49:47.478Z,88.60
2019-03-30T02:53:56.820Z,88.60
2019-03-30T02:58:06.516Z,88.50
2019-03-30T03:02:15.854Z,88.50
2019-03-30T03:06:25.288Z,89.10
2019-03-30T03:10:35.051Z,88.30
2019-03-30T03:14:45.084Z,88.30
2019-03-30T03:18:54.406Z,88.30
2019-03-30T03:23:03.808Z,88.40
2019-03-30T03:27:13.213Z,88.20
2019-03-30T03:31:22.535Z,88.30
2019-03-30T03:35:31.862Z,88.20
2019-03-30T03:39:41.188Z,88.40
2019-03-30T03:43:51.013Z,88.40
2019-03-30T03:48:00.412Z,89.10
2019-03-30T03:52:10.512Z,88.00
2019-03-30T03:56:22.013Z,88.20
2019-03-30T04:00:33.603Z,88.10
2019-03-30T04:04:47.431Z,88.30
2019-03-30T04:08:59.362Z,88.50
2019-03-30T04:13:11.302Z,88.60
2019-03-30T04:17:21.016Z,88.50
2019-03-30T04:21:43.828Z,89.40
2019-03-30T04:25:41.536Z,89.00
2019-03-30T04:29:50.869Z,89.20
2019-03-30T04:34:00.200Z,88.90
2019-03-30T04:38:13.931Z,89.20
2019-03-30T04:42:21.048Z,89.20
2019-03-30T04:46:30.381Z,89.50
2019-03-30T04:50:40.594Z,89.60
2019-03-30T04:54:50.233Z,89.70
2019-03-30T04:59:00.099Z,90.00
2019-03-30T05:03:09.769Z,89.80
2019-03-30T05:07:19.102Z,89.90
2019-03-30T05:11:28.426Z,89.60
2019-03-30T05:15:38.098Z,89.60
2019-03-30T05:19:47.425Z,89.60
2019-03-30T05:23:56.980Z,89.60
2019-03-30T05:28:06.655Z,89.60
2019-03-30T05:32:16.383Z,89.50
2019-03-30T05:36:26.031Z,89.70
2019-03-30T05:40:35.446Z,89.80
2019-03-30T05:44:44.787Z,89.70
2019-03-30T05:48:54.414Z,89.90
2019-03-30T05:53:04.443Z,90.00
2019-03-30T05:57:14.399Z,89.90
2019-03-30T06:01:23.739Z,89.30
2019-03-30T06:05:34.021Z,89.10
2019-03-30T06:09:43.367Z,88.90
2019-03-30T06:13:53.003Z,88.70
2019-03-30T06:18:02.347Z,88.20
2019-03-30T06:22:12.016Z,87.80
2019-03-30T06:26:21.347Z,87.10
2019-03-30T06:30:30.832Z,86.90
2019-03-30T06:34:40.150Z,86.50
2019-03-30T06:38:49.783Z,86.30
2019-03-30T06:42:59.539Z,86.20
2019-03-30T06:47:08.864Z,85.90
2019-03-30T06:51:18.641Z,85.20
2019-03-30T06:55:27.971Z,84.60
2019-03-30T06:59:37.308Z,84.20
2019-03-30T07:03:47.074Z,83.30
2019-03-30T07:07:56.583Z,82.90
2019-03-30T07:12:06.076Z,82.70
2019-03-30T07:16:15.834Z,82.40
2019-03-30T07:20:28.360Z,81.70
2019-03-30T07:24:38.302Z,80.90
2019-03-30T07:28:48.030Z,80.10
2019-03-30T07:32:57.706Z,79.10
2019-03-30T07:37:07.192Z,78.10
2019-03-30T07:41:16.507Z,77.10
2019-03-30T07:45:25.834Z,76.20
2019-03-30T07:49:35.172Z,75.90
2019-03-30T07:53:45.118Z,75.50
2019-03-30T07:57:54.679Z,74.50
2019-03-30T08:02:04.011Z,73.20
2019-03-30T08:06:16.334Z,72.00
2019-03-30T08:10:26.015Z,69.80
2019-03-30T08:14:35.434Z,69.00
2019-03-30T08:18:45.420Z,67.40
2019-03-30T08:22:54.767Z,62.30
2019-03-30T08:27:04.273Z,59.80
2019-03-30T08:31:13.658Z,57.20
2019-03-30T08:35:23.007Z,56.10
2019-03-30T08:39:32.954Z,54.30
2019-03-30T08:43:42.634Z,53.20
2019-03-30T08:47:51.991Z,52.10
2019-03-30T08:52:01.415Z,50.70
2019-03-30T08:56:11.076Z,50.00
2019-03-30T09:00:36.995Z,49.00
2019-03-30T09:04:46.339Z,48.40
2019-03-30T09:08:55.742Z,47.30
2019-03-30T09:13:05.168Z,46.50
2019-03-30T09:17:14.774Z,45.60
2019-03-30T09:21:24.110Z,45.70
2019-03-30T09:25:34.147Z,45.60
2019-03-30T09:29:43.727Z,45.30
2019-03-30T09:33:53.123Z,44.60
2019-03-30T09:38:02.480Z,44.10
2019-03-30T09:42:12.174Z,44.20
2019-03-30T09:46:21.525Z,44.20
2019-03-30T09:50:30.867Z,43.40
2019-03-30T09:54:40.216Z,42.70
2019-03-30T09:58:50.165Z,42.10
2019-03-30T10:02:59.790Z,42.10
2019-03-30T10:07:09.140Z,42.00
2019-03-30T10:11:18.475Z,42.30
2019-03-30T10:15:27.882Z,41.60
2019-03-30T10:19:37.618Z,41.80
2019-03-30T10:23:47.254Z,42.20
2019-03-30T10:27:56.743Z,42.30
2019-03-30T10:32:06.091Z,41.60
2019-03-30T10:36:15.431Z,41.40
2019-03-30T10:40:25.034Z,41.50
2019-03-30T10:44:34.452Z,41.20
2019-03-30T10:48:43.792Z,41.00
2019-03-30T10:52:53.143Z,40.90
2019-03-30T10:57:02.825Z,41.00
2019-03-30T11:01:12.284Z,40.70
2019-03-30T11:05:21.922Z,39.10
2019-03-30T11:09:31.253Z,39.60
2019-03-30T11:30:38.911Z,39.00
2019-03-30T11:34:48.259Z,38.10
2019-03-30T11:38:57.668Z,37.80
2019-03-30T11:43:06.994Z,36.50
2019-03-30T11:47:16.409Z,36.00
2019-03-30T11:51:25.788Z,35.30
2019-03-30T11:55:35.458Z,35.60
2019-03-30T11:59:45.027Z,34.30
2019-03-30T12:03:54.380Z,34.70
2019-03-30T12:08:03.882Z,35.20
2019-03-30T12:12:13.288Z,35.30
2019-03-30T12:16:22.986Z,34.90
2019-03-30T12:20:32.480Z,35.60
2019-03-30T12:24:41.881Z,35.80
2019-03-30T12:28:51.223Z,35.50
2019-03-30T12:33:00.550Z,36.50
2019-03-30T12:37:09.959Z,37.30
2019-03-30T12:41:19.291Z,35.50
2019-03-30T12:45:28.875Z,34.60
2019-03-30T12:49:38.604Z,34.80
2019-03-30T12:58:57.267Z,32.80
2019-03-30T13:03:07.095Z,31.20
2019-03-30T13:07:16.415Z,32.10
2019-03-30T13:11:25.745Z,33.10
2019-03-30T13:15:35.139Z,32.90
2019-03-30T13:19:44.580Z,33.40
2019-03-30T13:23:53.962Z,33.20
2019-03-30T13:28:03.562Z,32.80
2019-03-30T13:32:12.906Z,31.80
2019-03-30T13:36:39.003Z,31.80
2019-03-30T13:40:48.314Z,32.10
2019-03-30T13:44:57.867Z,31.80
2019-03-30T13:49:07.246Z,31.00
2019-03-30T13:53:16.658Z,30.90
2019-03-30T13:57:26.021Z,30.50
2019-03-30T14:01:35.408Z,31.10
2019-03-30T14:05:44.788Z,31.60
2019-03-30T14:09:54.094Z,31.80
2019-03-30T14:14:03.814Z,30.30
2019-03-30T14:18:13.147Z,31.40
2019-03-30T14:22:23.083Z,30.90
2019-03-30T14:26:32.431Z,30.80
2019-03-30T14:30:42.011Z,31.50
2019-03-30T14:34:51.551Z,30.40
2019-03-30T14:39:01.158Z,29.60
2019-03-30T14:43:10.471Z,30.30
2019-03-30T14:47:19.787Z,31.10
2019-03-30T14:51:29.334Z,30.30
2019-03-30T14:55:39.758Z,30.20
2019-03-30T14:59:49.131Z,30.90
2019-03-30T15:03:58.453Z,31.40
2019-03-30T15:08:07.838Z,31.20
2019-03-30T15:12:17.471Z,30.20
2019-03-30T15:16:26.791Z,29.50
2019-03-30T15:20:36.191Z,30.90
2019-03-30T15:24:45.747Z,31.30
2019-03-30T15:28:55.590Z,32.10
2019-03-30T15:33:05.079Z,32.70
2019-03-30T15:37:14.391Z,32.30
2019-03-30T15:41:23.707Z,32.10
2019-03-30T15:45:33.052Z,29.90
2019-03-30T15:49:42.370Z,31.00
2019-03-30T15:53:52.046Z,31.40
2019-03-30T15:58:01.787Z,31.40
2019-03-30T16:02:11.354Z,31.80
2019-03-30T16:06:20.667Z,31.80
2019-03-30T16:10:30.199Z,33.10
2019-03-30T16:14:39.762Z,33.10
2019-03-30T16:18:49.091Z,33.60
2019-03-30T16:22:58.652Z,34.10
2019-03-30T16:27:07.982Z,33.90
2019-03-30T16:31:17.380Z,34.00
2019-03-30T16:35:26.703Z,34.60
2019-03-30T16:39:36.278Z,34.40
2019-03-30T16:43:45.695Z,33.80
2019-03-30T16:47:55.335Z,34.30
2019-03-30T16:52:04.798Z,35.40
2019-03-30T16:56:14.116Z,36.10
2019-03-30T17:00:23.646Z,36.40
2019-03-30T17:04:33.257Z,36.60
2019-03-30T17:08:42.554Z,37.00
2019-03-30T17:12:52.159Z,37.70
2019-03-30T17:17:01.991Z,38.10
2019-03-30T17:21:11.316Z,38.50
2019-03-30T17:25:20.714Z,39.20
2019-03-30T17:29:30.088Z,39.90
2019-03-30T17:33:40.235Z,40.00
2019-03-30T17:37:49.642Z,40.90
2019-03-30T17:41:58.966Z,41.20
2019-03-30T17:46:08.954Z,42.20
2019-03-30T17:50:18.763Z,43.10
2019-03-30T17:54:28.348Z,44.10
2019-03-30T17:58:38.236Z,45.10
2019-03-30T18:02:47.638Z,45.90
2019-03-30T18:06:57.471Z,46.80
2019-03-30T18:11:06.940Z,47.70
2019-03-30T18:15:16.769Z,48.50
2019-03-30T18:19:26.094Z,49.40
2019-03-30T18:23:35.698Z,50.50
2019-03-30T18:27:45.076Z,51.10
2019-03-30T18:31:55.366Z,51.80
2019-03-30T18:36:05.211Z,52.60
2019-03-30T18:40:27.211Z,53.40
2019-03-30T18:44:36.734Z,54.30
2019-03-30T18:48:46.379Z,54.60
2019-03-30T18:52:55.955Z,54.80
2019-03-30T18:57:06.352Z,55.20
2019-03-30T19:01:15.927Z,55.60
2019-03-30T19:05:25.554Z,55.90
2019-03-30T19:09:34.874Z,56.20
2019-03-30T19:13:44.272Z,56.80
2019-03-30T19:17:53.687Z,57.40
2019-03-30T19:22:03.154Z,57.70
2019-03-30T19:26:12.534Z,58.10
2019-03-30T19:30:23.619Z,58.60
2019-03-30T19:34:33.177Z,58.90
2019-03-30T19:38:44.011Z,59.20
2019-03-30T19:42:53.854Z,59.40
2019-03-30T19:47:03.197Z,59.70
2019-03-30T19:51:12.936Z,60.10
2019-03-30T19:55:22.610Z,61.00
2019-03-30T19:59:32.052Z,61.50
2019-03-30T20:03:41.384Z,62.00
2019-03-30T20:07:50.774Z,62.60
2019-03-30T20:12:00.312Z,63.30
2019-03-30T20:16:09.910Z,64.00
2019-03-30T20:20:19.565Z,65.10
2019-03-30T20:24:28.922Z,65.60
2019-03-30T20:28:38.280Z,66.20
2019-03-30T20:32:48.134Z,66.60
2019-03-30T20:36:57.786Z,67.20
2019-03-30T20:41:07.687Z,67.80
2019-03-30T20:45:17.270Z,68.20
2019-03-30T20:49:27.131Z,68.70
2019-03-30T20:53:36.761Z,68.90
2019-03-30T20:57:46.079Z,69.30
2019-03-30T21:01:55.912Z,70.00
2019-03-30T21:06:05.541Z,70.60
2019-03-30T21:10:15.294Z,70.80
2019-03-30T21:14:24.622Z,71.20
2019-03-30T21:18:34.234Z,71.90
2019-03-30T21:22:43.794Z,72.20
2019-03-30T21:26:53.146Z,72.40
2019-03-30T21:31:02.997Z,72.70
2019-03-30T21:35:12.471Z,72.70
2019-03-30T21:39:21.791Z,72.90
2019-03-30T21:43:31.206Z,72.60
2019-03-30T21:47:40.562Z,72.80
2019-03-30T21:51:50.239Z,73.40
2019-03-30T21:55:59.563Z,73.90
2019-03-30T22:00:11.004Z,73.70
2019-03-30T22:04:20.815Z,73.90
2019-03-30T22:08:31.191Z,74.20
2019-03-30T22:12:43.147Z,74.70
2019-03-30T22:16:52.800Z,74.90
2019-03-30T22:21:02.499Z,74.90
2019-03-30T22:25:12.163Z,74.90
2019-03-30T22:29:21.767Z,75.00
2019-03-30T22:33:31.154Z,75.10
2019-03-30T22:37:40.558Z,75.30
2019-03-30T22:41:49.917Z,75.30
2019-03-30T22:45:59.482Z,75.40
2019-03-30T22:50:09.575Z,75.90
2019-03-30T22:54:19.115Z,76.10
2019-03-30T22:58:28.519Z,76.30
2019-03-30T23:02:37.990Z,76.80
2019-03-30T23:06:47.474Z,77.10
2019-03-30T23:10:56.875Z,77.30
2019-03-30T23:15:06.666Z,77.20
2019-03-30T23:19:16.230Z,77.30
2019-03-30T23:23:25.830Z,77.70
2019-03-30T23:27:35.140Z,78.00
2019-03-30T23:31:44.462Z,77.90
2019-03-30T23:35:54.392Z,78.30
2019-03-30T23:40:03.975Z,78.80
2019-03-30T23:44:13.618Z,79.30
2019-03-30T23:48:23.039Z,79.20
2019-03-30T23:52:32.623Z,79.40
2019-03-30T23:56:41.950Z,79.70
